ARE5743 SKBO-SKRG
Flight info
| Callsign | ARE5743 |
|---|---|
| Flight time | 0h 44m |
| Altitude | 24000 |
| Route | TOBKI1S VASIL W36 NIRSO NIRSO3C |
| Aircraft | A320/M-SDE3FGHIRWY/LB1 |
Departure
| Time | 2026-05-06 18:40 |
|---|---|
| Airport | El Dorado International Airport (SKBO) |
Arrival
| Time | 2026-05-06 19:25 |
|---|---|
| Airport | Jose Maria Córdova International Airport (SKRG) |
| Time | Latitude | Longitude | Altitude | Speed | Heading |
|---|---|---|---|---|---|
| 2026-05-06 17:29 | 4.70002 | -74.14334 | 8370 ft | 0 kts | 37° |
| 2026-05-06 18:29 | 4.69991 | -74.14343 | 8370 ft | 4 kts | 34° |
| 2026-05-06 18:29 | 4.69968 | -74.14357 | 8370 ft | 4 kts | 22° |
| 2026-05-06 18:30 | 4.69943 | -74.14363 | 8370 ft | 4 kts | 348° |
| 2026-05-06 18:30 | 4.69928 | -74.14356 | 8370 ft | 1 kts | 304° |
| 2026-05-06 18:30 | 4.69926 | -74.14353 | 8370 ft | 0 kts | 304° |
| 2026-05-06 18:33 | 4.69927 | -74.14354 | 8370 ft | 0 kts | 304° |
| 2026-05-06 18:34 | 4.69929 | -74.14356 | 8370 ft | 1 kts | 304° |
| 2026-05-06 18:34 | 4.69939 | -74.14372 | 8370 ft | 6 kts | 305° |
| 2026-05-06 18:34 | 4.69978 | -74.14425 | 8370 ft | 13 kts | 307° |
| 2026-05-06 18:34 | 4.70049 | -74.14516 | 8370 ft | 20 kts | 309° |
| 2026-05-06 18:35 | 4.70140 | -74.14573 | 8370 ft | 14 kts | 331° |
| 2026-05-06 18:35 | 4.70149 | -74.14652 | 8370 ft | 13 kts | 263° |
| 2026-05-06 18:35 | 4.70131 | -74.14738 | 8370 ft | 14 kts | 201° |
| 2026-05-06 18:35 | 4.70040 | -74.14804 | 8370 ft | 15 kts | 214° |
| 2026-05-06 18:36 | 4.69943 | -74.14881 | 8370 ft | 19 kts | 218° |
| 2026-05-06 18:36 | 4.69862 | -74.14972 | 8370 ft | 17 kts | 279° |
| 2026-05-06 18:36 | 4.69948 | -74.15099 | 8370 ft | 28 kts | 306° |
| 2026-05-06 18:36 | 4.70088 | -74.15284 | 8371 ft | 39 kts | 307° |
| 2026-05-06 18:37 | 4.70263 | -74.15512 | 8370 ft | 39 kts | 307° |
| 2026-05-06 18:37 | 4.70372 | -74.15658 | 8370 ft | 39 kts | 307° |
| 2026-05-06 18:37 | 4.70555 | -74.15899 | 8371 ft | 30 kts | 307° |
| 2026-05-06 18:37 | 4.70687 | -74.16074 | 8371 ft | 33 kts | 307° |
| 2026-05-06 18:38 | 4.70830 | -74.16265 | 8371 ft | 36 kts | 308° |
| 2026-05-06 18:38 | 4.70986 | -74.16468 | 8371 ft | 38 kts | 307° |
| 2026-05-06 18:38 | 4.71092 | -74.16608 | 8371 ft | 24 kts | 307° |
| 2026-05-06 18:38 | 4.71191 | -74.16742 | 8370 ft | 15 kts | 306° |
| 2026-05-06 18:39 | 4.71161 | -74.16824 | 8371 ft | 16 kts | 211° |
| 2026-05-06 18:39 | 4.71063 | -74.16887 | 8371 ft | 16 kts | 190° |
| 2026-05-06 18:39 | 4.70975 | -74.16815 | 8372 ft | 20 kts | 120° |
| 2026-05-06 18:40 | 4.70590 | -74.16295 | 8374 ft | 97 kts | 126° |
| 2026-05-06 18:40 | 4.70061 | -74.15602 | 8372 ft | 151 kts | 127° |
| 2026-05-06 18:40 | 4.69337 | -74.14637 | 8392 ft | 193 kts | 127° |
| 2026-05-06 18:40 | 4.68487 | -74.13564 | 9017 ft | 201 kts | 128° |
| 2026-05-06 18:41 | 4.67444 | -74.12573 | 9644 ft | 215 kts | 148° |
| 2026-05-06 18:41 | 4.66013 | -74.12157 | 10239 ft | 217 kts | 177° |
| 2026-05-06 18:41 | 4.64548 | -74.12503 | 10700 ft | 223 kts | 205° |
| 2026-05-06 18:41 | 4.63435 | -74.13603 | 11014 ft | 238 kts | 242° |
| 2026-05-06 18:42 | 4.63134 | -74.15254 | 11375 ft | 248 kts | 272° |
| 2026-05-06 18:42 | 4.63245 | -74.17008 | 11676 ft | 258 kts | 270° |
| 2026-05-06 18:42 | 4.63014 | -74.18810 | 11981 ft | 263 kts | 249° |
| 2026-05-06 18:42 | 4.62241 | -74.20490 | 12299 ft | 270 kts | 240° |
| 2026-05-06 18:43 | 4.61477 | -74.22237 | 12690 ft | 281 kts | 249° |
| 2026-05-06 18:43 | 4.60913 | -74.24187 | 12896 ft | 302 kts | 256° |
| 2026-05-06 18:43 | 4.60459 | -74.26318 | 13008 ft | 325 kts | 257° |
| 2026-05-06 18:43 | 4.60127 | -74.28638 | 13117 ft | 347 kts | 263° |
| 2026-05-06 18:44 | 4.59940 | -74.31130 | 13217 ft | 368 kts | 265° |
| 2026-05-06 18:44 | 4.59823 | -74.33726 | 13611 ft | 377 kts | 267° |
| 2026-05-06 18:44 | 4.59732 | -74.36367 | 14152 ft | 381 kts | 267° |
| 2026-05-06 18:44 | 4.59635 | -74.39032 | 14628 ft | 384 kts | 268° |
| 2026-05-06 18:45 | 4.59876 | -74.41700 | 15077 ft | 388 kts | 284° |
| 2026-05-06 18:45 | 4.60587 | -74.44320 | 15561 ft | 391 kts | 286° |
| 2026-05-06 18:45 | 4.61339 | -74.46946 | 16051 ft | 393 kts | 287° |
| 2026-05-06 18:45 | 4.61849 | -74.48693 | 16394 ft | 395 kts | 287° |
| 2026-05-06 18:46 | 4.62889 | -74.52241 | 17094 ft | 398 kts | 287° |
| 2026-05-06 18:46 | 4.63670 | -74.54918 | 17596 ft | 401 kts | 287° |
| 2026-05-06 18:46 | 4.64542 | -74.57576 | 18113 ft | 403 kts | 295° |
| 2026-05-06 18:46 | 4.65904 | -74.59981 | 18571 ft | 402 kts | 308° |
| 2026-05-06 18:47 | 4.67789 | -74.62035 | 19002 ft | 400 kts | 322° |
| 2026-05-06 18:47 | 4.70081 | -74.63607 | 19436 ft | 399 kts | 335° |
| 2026-05-06 18:47 | 4.72661 | -74.64610 | 19860 ft | 399 kts | 348° |
| 2026-05-06 18:47 | 4.75376 | -74.65202 | 20306 ft | 400 kts | 351° |
| 2026-05-06 18:48 | 4.78111 | -74.65785 | 20752 ft | 403 kts | 350° |
| 2026-05-06 18:48 | 4.80864 | -74.66380 | 21151 ft | 406 kts | 350° |
| 2026-05-06 18:48 | 4.83580 | -74.67199 | 21484 ft | 411 kts | 340° |
| 2026-05-06 18:48 | 4.86114 | -74.68538 | 21563 ft | 410 kts | 328° |
| 2026-05-06 18:49 | 4.88373 | -74.70272 | 21578 ft | 407 kts | 323° |
| 2026-05-06 18:49 | 4.90589 | -74.72031 | 21571 ft | 405 kts | 324° |
| 2026-05-06 18:49 | 4.92743 | -74.73853 | 21567 ft | 407 kts | 317° |
| 2026-05-06 18:49 | 4.94571 | -74.76021 | 21560 ft | 409 kts | 306° |
| 2026-05-06 18:50 | 4.95982 | -74.78498 | 21560 ft | 410 kts | 297° |
| 2026-05-06 18:50 | 4.97233 | -74.81074 | 21561 ft | 411 kts | 297° |
| 2026-05-06 18:50 | 4.98485 | -74.83649 | 21561 ft | 411 kts | 297° |
| 2026-05-06 18:50 | 4.99667 | -74.86077 | 21557 ft | 410 kts | 297° |
| 2026-05-06 18:51 | 5.00921 | -74.88650 | 21556 ft | 411 kts | 297° |
| 2026-05-06 18:51 | 5.02176 | -74.91231 | 21736 ft | 413 kts | 297° |
| 2026-05-06 18:51 | 5.03438 | -74.93827 | 21964 ft | 414 kts | 297° |
| 2026-05-06 18:51 | 5.04698 | -74.96415 | 21987 ft | 413 kts | 297° |
| 2026-05-06 18:52 | 5.05939 | -74.98967 | 21992 ft | 412 kts | 297° |
| 2026-05-06 18:52 | 5.07196 | -75.01549 | 21997 ft | 412 kts | 297° |
| 2026-05-06 18:52 | 5.08455 | -75.04132 | 22005 ft | 412 kts | 297° |
| 2026-05-06 18:52 | 5.09714 | -75.06719 | 22018 ft | 412 kts | 297° |
| 2026-05-06 18:53 | 5.10970 | -75.09302 | 22028 ft | 412 kts | 297° |
| 2026-05-06 18:53 | 5.12228 | -75.11888 | 22045 ft | 412 kts | 297° |
| 2026-05-06 18:53 | 5.13483 | -75.14466 | 22060 ft | 412 kts | 297° |
| 2026-05-06 18:53 | 5.14742 | -75.17045 | 22075 ft | 411 kts | 298° |
| 2026-05-06 18:54 | 5.15695 | -75.18683 | 22168 ft | 410 kts | 306° |
| 2026-05-06 18:54 | 5.18103 | -75.21637 | 22189 ft | 408 kts | 313° |
| 2026-05-06 18:54 | 5.19990 | -75.23766 | 22193 ft | 408 kts | 313° |
| 2026-05-06 18:54 | 5.21876 | -75.25895 | 22194 ft | 408 kts | 313° |
| 2026-05-06 18:55 | 5.23127 | -75.27308 | 22196 ft | 408 kts | 313° |
| 2026-05-06 18:55 | 5.25011 | -75.29438 | 22192 ft | 408 kts | 313° |
| 2026-05-06 18:55 | 5.26895 | -75.31568 | 22190 ft | 408 kts | 313° |
| 2026-05-06 18:55 | 5.28771 | -75.33690 | 22082 ft | 404 kts | 313° |
| 2026-05-06 18:56 | 5.30635 | -75.35799 | 21546 ft | 403 kts | 313° |
| 2026-05-06 18:56 | 5.32653 | -75.37727 | 21033 ft | 399 kts | 326° |
| 2026-05-06 18:56 | 5.35029 | -75.39122 | 20516 ft | 394 kts | 340° |
| 2026-05-06 18:56 | 5.37630 | -75.39909 | 20015 ft | 388 kts | 353° |
| 2026-05-06 18:57 | 5.40302 | -75.40141 | 19542 ft | 384 kts | 360° |
| 2026-05-06 18:57 | 5.42958 | -75.40283 | 19076 ft | 383 kts | 0° |
| 2026-05-06 18:57 | 5.45603 | -75.40429 | 18653 ft | 379 kts | 360° |
| 2026-05-06 18:57 | 5.48239 | -75.40578 | 18157 ft | 377 kts | 0° |
| 2026-05-06 18:58 | 5.50844 | -75.40728 | 17665 ft | 375 kts | 0° |
| 2026-05-06 18:58 | 5.53436 | -75.40877 | 17136 ft | 370 kts | 0° |
| 2026-05-06 18:58 | 5.56016 | -75.41022 | 16596 ft | 371 kts | 0° |
| 2026-05-06 18:58 | 5.58583 | -75.41165 | 16171 ft | 368 kts | 0° |
| 2026-05-06 18:59 | 5.61132 | -75.41307 | 15713 ft | 366 kts | 0° |
| 2026-05-06 18:59 | 5.63676 | -75.41450 | 15287 ft | 365 kts | 359° |
| 2026-05-06 18:59 | 5.66201 | -75.41591 | 14892 ft | 363 kts | 0° |
| 2026-05-06 18:59 | 5.68710 | -75.41731 | 14319 ft | 359 kts | 0° |
| 2026-05-06 19:00 | 5.71157 | -75.41870 | 14106 ft | 345 kts | 0° |
| 2026-05-06 19:00 | 5.73521 | -75.42003 | 13989 ft | 335 kts | 0° |
| 2026-05-06 19:00 | 5.75824 | -75.42131 | 13878 ft | 327 kts | 0° |
| 2026-05-06 19:00 | 5.78042 | -75.42248 | 13742 ft | 319 kts | 2° |
| 2026-05-06 19:01 | 5.80222 | -75.42298 | 13612 ft | 308 kts | 4° |
| 2026-05-06 19:01 | 5.82330 | -75.42297 | 13501 ft | 299 kts | 5° |
| 2026-05-06 19:01 | 5.84391 | -75.42276 | 13397 ft | 292 kts | 4° |
| 2026-05-06 19:01 | 5.86394 | -75.42255 | 13281 ft | 283 kts | 5° |
| 2026-05-06 19:02 | 5.88343 | -75.42240 | 13112 ft | 274 kts | 5° |
| 2026-05-06 19:02 | 5.90126 | -75.42237 | 12900 ft | 262 kts | 4° |
| 2026-05-06 19:02 | 5.91931 | -75.42238 | 12533 ft | 256 kts | 4° |
| 2026-05-06 19:02 | 5.93698 | -75.42241 | 12198 ft | 252 kts | 4° |
| 2026-05-06 19:03 | 5.95437 | -75.42245 | 11842 ft | 248 kts | 4° |
| 2026-05-06 19:03 | 5.97153 | -75.42249 | 11469 ft | 246 kts | 3° |
| 2026-05-06 19:03 | 5.98857 | -75.42253 | 10938 ft | 245 kts | 4° |
| 2026-05-06 19:03 | 6.00556 | -75.42258 | 10413 ft | 243 kts | 3° |
| 2026-05-06 19:04 | 6.02236 | -75.42262 | 9894 ft | 241 kts | 2° |
| 2026-05-06 19:04 | 6.03876 | -75.42268 | 9630 ft | 225 kts | 3° |
| 2026-05-06 19:04 | 6.05360 | -75.42277 | 9621 ft | 206 kts | 2° |
| 2026-05-06 19:04 | 6.06767 | -75.42282 | 9651 ft | 198 kts | 3° |
| 2026-05-06 19:05 | 6.08138 | -75.42270 | 9644 ft | 197 kts | 4° |
| 2026-05-06 19:05 | 6.09531 | -75.42255 | 9197 ft | 201 kts | 5° |
| 2026-05-06 19:05 | 6.10922 | -75.42252 | 8710 ft | 202 kts | 1° |
| 2026-05-06 19:05 | 6.12315 | -75.42318 | 8191 ft | 196 kts | 4° |
| 2026-05-06 19:06 | 6.13659 | -75.42279 | 7664 ft | 192 kts | 4° |
| 2026-05-06 19:06 | 6.14963 | -75.42298 | 7347 ft | 178 kts | 1° |
| 2026-05-06 19:06 | 6.16249 | -75.42316 | 7446 ft | 203 kts | 2° |
| 2026-05-06 19:06 | 6.17793 | -75.42303 | 7778 ft | 240 kts | 2° |
| 2026-05-06 19:07 | 6.19539 | -75.42284 | 8261 ft | 263 kts | 2° |
| 2026-05-06 19:07 | 6.21372 | -75.42276 | 8354 ft | 261 kts | 5° |
| 2026-05-06 19:07 | 6.23096 | -75.41799 | 8352 ft | 252 kts | 32° |
| 2026-05-06 19:07 | 6.24386 | -75.40683 | 8353 ft | 247 kts | 57° |
| 2026-05-06 19:08 | 6.25105 | -75.39140 | 8470 ft | 245 kts | 81° |
| 2026-05-06 19:08 | 6.25149 | -75.37444 | 9179 ft | 243 kts | 101° |
| 2026-05-06 19:08 | 6.24556 | -75.35856 | 9821 ft | 246 kts | 124° |
| 2026-05-06 19:08 | 6.23341 | -75.34638 | 10159 ft | 250 kts | 150° |
| 2026-05-06 19:09 | 6.21708 | -75.34051 | 10236 ft | 250 kts | 162° |
| 2026-05-06 19:09 | 6.20088 | -75.33436 | 10245 ft | 249 kts | 155° |
| 2026-05-06 19:09 | 6.18497 | -75.32751 | 10251 ft | 248 kts | 154° |
| 2026-05-06 19:09 | 6.16913 | -75.32059 | 10245 ft | 247 kts | 154° |
| 2026-05-06 19:10 | 6.15383 | -75.31294 | 10236 ft | 244 kts | 141° |
| 2026-05-06 19:10 | 6.14358 | -75.29971 | 10215 ft | 243 kts | 110° |
| 2026-05-06 19:10 | 6.14167 | -75.28289 | 10201 ft | 247 kts | 82° |
| 2026-05-06 19:10 | 6.14765 | -75.26677 | 10186 ft | 251 kts | 58° |
| 2026-05-06 19:11 | 6.16011 | -75.25429 | 10166 ft | 258 kts | 33° |
| 2026-05-06 19:11 | 6.17687 | -75.24820 | 10169 ft | 262 kts | 11° |
| 2026-05-06 19:11 | 6.19503 | -75.24544 | 10159 ft | 265 kts | 8° |
| 2026-05-06 19:11 | 6.21348 | -75.24462 | 10155 ft | 266 kts | 2° |
| 2026-05-06 19:12 | 6.23209 | -75.24494 | 10150 ft | 267 kts | 1° |
| 2026-05-06 19:12 | 6.25054 | -75.24728 | 10143 ft | 270 kts | 343° |
| 2026-05-06 19:12 | 6.26683 | -75.25660 | 10145 ft | 272 kts | 317° |
| 2026-05-06 19:12 | 6.27760 | -75.27206 | 10148 ft | 272 kts | 289° |
| 2026-05-06 19:13 | 6.28067 | -75.29060 | 10169 ft | 270 kts | 263° |
| 2026-05-06 19:13 | 6.27575 | -75.30844 | 10180 ft | 264 kts | 237° |
| 2026-05-06 19:13 | 6.26416 | -75.32237 | 10203 ft | 259 kts | 213° |
| 2026-05-06 19:13 | 6.24824 | -75.33023 | 10219 ft | 253 kts | 189° |
| 2026-05-06 19:14 | 6.23091 | -75.33126 | 10234 ft | 250 kts | 173° |
| 2026-05-06 19:14 | 6.21352 | -75.32998 | 10242 ft | 251 kts | 173° |
| 2026-05-06 19:14 | 6.19608 | -75.32866 | 10248 ft | 252 kts | 173° |
| 2026-05-06 19:14 | 6.17884 | -75.32735 | 10248 ft | 251 kts | 173° |
| 2026-05-06 19:15 | 6.16147 | -75.32606 | 10246 ft | 250 kts | 173° |
| 2026-05-06 19:15 | 6.14412 | -75.32480 | 10249 ft | 251 kts | 173° |
| 2026-05-06 19:15 | 6.12672 | -75.32355 | 10237 ft | 250 kts | 173° |
| 2026-05-06 19:15 | 6.10937 | -75.32229 | 10227 ft | 250 kts | 173° |
| 2026-05-06 19:16 | 6.09201 | -75.32104 | 10219 ft | 250 kts | 174° |
| 2026-05-06 19:16 | 6.07461 | -75.31977 | 10204 ft | 251 kts | 173° |
| 2026-05-06 19:16 | 6.05706 | -75.31846 | 10620 ft | 253 kts | 173° |
| 2026-05-06 19:16 | 6.03949 | -75.31717 | 11265 ft | 253 kts | 172° |
| 2026-05-06 19:17 | 6.02182 | -75.31590 | 11647 ft | 256 kts | 173° |
| 2026-05-06 19:17 | 6.00389 | -75.31461 | 11818 ft | 258 kts | 173° |
| 2026-05-06 19:17 | 5.98597 | -75.31329 | 11831 ft | 259 kts | 172° |
| 2026-05-06 19:17 | 5.96797 | -75.31199 | 11804 ft | 258 kts | 173° |
| 2026-05-06 19:18 | 5.95007 | -75.31073 | 11789 ft | 257 kts | 172° |
| 2026-05-06 19:18 | 5.93249 | -75.30950 | 11782 ft | 257 kts | 172° |
| 2026-05-06 19:18 | 5.91454 | -75.30829 | 11745 ft | 258 kts | 175° |
| 2026-05-06 19:18 | 5.89692 | -75.31169 | 11724 ft | 264 kts | 203° |
| 2026-05-06 19:19 | 5.88270 | -75.32361 | 11719 ft | 273 kts | 234° |
| 2026-05-06 19:19 | 5.87611 | -75.34149 | 11722 ft | 279 kts | 265° |
| 2026-05-06 19:19 | 5.87567 | -75.36108 | 11738 ft | 279 kts | 268° |
| 2026-05-06 19:19 | 5.87562 | -75.37986 | 11718 ft | 257 kts | 269° |
| 2026-05-06 19:20 | 5.87797 | -75.39667 | 11742 ft | 235 kts | 291° |
| 2026-05-06 19:20 | 5.88629 | -75.41013 | 11638 ft | 224 kts | 317° |
| 2026-05-06 19:20 | 5.89893 | -75.41878 | 11471 ft | 219 kts | 342° |
| 2026-05-06 19:20 | 5.91405 | -75.42158 | 11274 ft | 224 kts | 3° |
| 2026-05-06 19:21 | 5.92976 | -75.42166 | 11014 ft | 226 kts | 4° |
| 2026-05-06 19:21 | 5.94545 | -75.42171 | 10754 ft | 226 kts | 4° |
| 2026-05-06 19:21 | 5.96129 | -75.42179 | 10506 ft | 227 kts | 4° |
| 2026-05-06 19:21 | 5.97698 | -75.42190 | 10233 ft | 224 kts | 3° |
| 2026-05-06 19:22 | 5.99245 | -75.42200 | 9995 ft | 225 kts | 2° |
| 2026-05-06 19:22 | 6.00817 | -75.42210 | 9699 ft | 223 kts | 3° |
| 2026-05-06 19:22 | 6.02354 | -75.42220 | 9430 ft | 223 kts | 2° |
| 2026-05-06 19:22 | 6.03899 | -75.42231 | 9161 ft | 221 kts | 2° |
| 2026-05-06 19:23 | 6.05433 | -75.42240 | 8887 ft | 221 kts | 3° |
| 2026-05-06 19:23 | 6.06957 | -75.42250 | 8627 ft | 219 kts | 3° |
| 2026-05-06 19:23 | 6.08481 | -75.42260 | 8357 ft | 219 kts | 2° |
| 2026-05-06 19:23 | 6.10005 | -75.42270 | 8075 ft | 218 kts | 1° |
| 2026-05-06 19:24 | 6.11529 | -75.42280 | 7773 ft | 219 kts | 3° |
| 2026-05-06 19:24 | 6.13016 | -75.42290 | 7454 ft | 206 kts | 1° |
| 2026-05-06 19:24 | 6.14393 | -75.42297 | 7152 ft | 190 kts | 359° |
| 2026-05-06 19:24 | 6.15671 | -75.42307 | 6981 ft | 173 kts | 359° |
| 2026-05-06 19:25 | 6.16602 | -75.42314 | 7001 ft | 93 kts | 360° |
| 2026-05-06 19:25 | 6.16942 | -75.42315 | 7017 ft | 6 kts | 359° |
| 2026-05-06 19:25 | 6.17028 | -75.42317 | 7019 ft | 33 kts | 359° |
| 2026-05-06 19:25 | 6.17332 | -75.42319 | 7025 ft | 43 kts | 1° |
| 2026-05-06 19:26 | 6.17537 | -75.42322 | 7025 ft | 19 kts | 346° |
| 2026-05-06 19:26 | 6.17572 | -75.42437 | 7019 ft | 20 kts | 271° |
| 2026-05-06 19:26 | 6.17477 | -75.42555 | 7018 ft | 20 kts | 213° |
| 2026-05-06 19:26 | 6.17367 | -75.42626 | 7019 ft | 15 kts | 211° |
| 2026-05-06 19:27 | 6.17348 | -75.42672 | 7016 ft | 0 kts | 289° |
| 2026-05-06 19:27 | 6.17351 | -75.42681 | 7016 ft | 2 kts | 289° |
| 2026-05-06 19:27 | 6.17359 | -75.42698 | 7017 ft | 3 kts | 298° |
| 2026-05-06 19:27 | 6.17363 | -75.42722 | 7016 ft | 4 kts | 253° |
| 2026-05-06 19:28 | 6.17336 | -75.42748 | 7016 ft | 6 kts | 216° |
| 2026-05-06 19:28 | 6.17303 | -75.42770 | 7016 ft | 0 kts | 212° |
| 2026-05-06 19:28 | 6.17300 | -75.42772 | 7016 ft | 0 kts | 212° |
| 2026-05-06 19:28 | 6.17297 | -75.42773 | 7020 ft | 0 kts | 212° |